Portada
METAR-TAF:

METAR-TAF

Aeroports :

Cienfuegos, Cuba

latitud: 22-09N, longitud: 080-24W, altitud: 39 m

Observació

L'informe es va fer fa 57 minuts, a les 01:59 UTC
Vent 6 kt del Est/Nord-Est
Temperatura 25°C
Humitat 94%
Pressió 1017 hPa

METAR: MUCF 220159Z AUTO 07006KT 25/24 Q1017

Hora: 22:56 (02:56 UTC)

Pronòstic

L'informe es va fer fa 9 hores i 56 minuts, a les 17:00 UTC
Pronòstic vàlid del 21 a les 18 UTC al 22 a les 18 UTC
Vent 9 kt del Est/Nord-Est
Visibilitat: 9000 m
Núvols disperses a una alçada de 2000 ft
Temporalment
l' 21 a les 18 UTC al 21 a les 24 UTC
Vent 10 kt amb direcció variable
Visibilitat: 5000 m
Núvols disperses a una alçada de 1800 ft, Cumulonimbus.
Cel ennuvolat a una alçada de 2000 ft
pluja

TAF: MUCF 211700Z 2118/2218 07009KT 9000 SCT020 TEMPO 2118/2124 VRB10KT 5000 RA SCT018CB BKN020

Observacions i pronòstics meteorològics de més de 4000 aeroports (METAR i TAF).

Les estacions disponibles són els punts grocs i vermells al mapa.

Posi el ratolí al punt desitjat per veure el nom de l'estació.

Feu clic per veure les observacions i els pronòstics meteorològics.

Per canviar el mapa: feu clic els botons verds amb una creu de color negre per apropar; al botó verd amb un guió per allunyar la imatge; o en les fletxes verdes per a mapes adjacents.


METAR-TAF: